createdAt,value
2022-12-09T00:01:22.132Z,3.60
2022-12-09T00:03:49.860Z,3.60
2022-12-09T00:06:17.974Z,3.60
2022-12-09T00:08:45.048Z,3.60
2022-12-09T00:11:12.417Z,3.60
2022-12-09T00:13:39.323Z,3.60
2022-12-09T00:16:14.065Z,3.60
2022-12-09T00:18:45.938Z,3.60
2022-12-09T00:21:23.132Z,3.70
2022-12-09T00:23:51.471Z,3.70
2022-12-09T00:26:20.099Z,3.70
2022-12-09T00:28:47.972Z,3.70
2022-12-09T00:31:24.423Z,3.70
2022-12-09T00:33:55.570Z,3.70
2022-12-09T00:36:23.216Z,3.70
2022-12-09T00:38:50.673Z,3.70
2022-12-09T00:41:18.081Z,3.70
2022-12-09T00:43:44.785Z,3.70
2022-12-09T00:46:12.883Z,3.70
2022-12-09T00:48:40.276Z,3.70
2022-12-09T00:51:08.806Z,3.70
2022-12-09T00:53:39.111Z,3.70
2022-12-09T00:56:06.662Z,3.60
2022-12-09T00:58:33.335Z,3.60
2022-12-09T01:01:00.295Z,3.70
2022-12-09T01:03:27.632Z,3.70
2022-12-09T01:05:57.430Z,3.70
2022-12-09T01:08:24.368Z,3.70
2022-12-09T01:10:51.222Z,3.70
2022-12-09T01:13:20.579Z,3.70
2022-12-09T01:15:47.616Z,3.70
2022-12-09T01:18:16.918Z,3.70
2022-12-09T01:20:45.789Z,3.70
2022-12-09T01:23:14.965Z,3.70
2022-12-09T01:25:41.665Z,3.70
2022-12-09T01:28:10.486Z,3.60
2022-12-09T01:30:39.604Z,3.60
2022-12-09T01:33:08.744Z,3.60
2022-12-09T01:35:39.535Z,3.50
2022-12-09T01:38:06.408Z,3.50
2022-12-09T01:40:33.252Z,3.60
2022-12-09T01:43:00.195Z,3.50
2022-12-09T01:45:40.766Z,3.60
2022-12-09T01:48:16.950Z,3.60
2022-12-09T01:50:49.073Z,3.50
2022-12-09T01:53:19.695Z,3.60
2022-12-09T01:55:46.466Z,3.60
2022-12-09T01:58:14.956Z,3.60
2022-12-09T02:00:42.858Z,3.60
2022-12-09T02:03:09.842Z,3.60
2022-12-09T02:05:37.302Z,3.60
2022-12-09T02:08:07.772Z,3.60
2022-12-09T02:10:38.256Z,3.50
2022-12-09T02:13:25.294Z,3.50
2022-12-09T02:15:58.931Z,3.50
2022-12-09T02:18:39.153Z,3.50
2022-12-09T02:21:11.291Z,3.50
2022-12-09T02:23:59.367Z,3.50
2022-12-09T02:26:30.577Z,3.50
2022-12-09T02:29:16.218Z,3.40
2022-12-09T02:32:09.600Z,3.40
2022-12-09T02:34:44.400Z,3.40
2022-12-09T02:37:15.156Z,3.40
2022-12-09T02:39:59.537Z,3.40
2022-12-09T02:42:36.168Z,3.50
2022-12-09T02:45:08.855Z,3.50
2022-12-09T02:47:41.729Z,3.50
2022-12-09T02:50:13.349Z,3.40
2022-12-09T02:52:42.223Z,3.40
2022-12-09T02:55:12.493Z,3.40
2022-12-09T02:57:41.937Z,3.30
2022-12-09T03:00:14.019Z,3.40
2022-12-09T03:02:44.898Z,3.40
2022-12-09T03:05:20.754Z,3.40
2022-12-09T03:08:15.105Z,3.40
2022-12-09T03:10:50.949Z,3.50
2022-12-09T03:13:33.935Z,3.50
2022-12-09T03:16:39.589Z,3.40
2022-12-09T03:19:36.339Z,3.40
2022-12-09T03:22:11.614Z,3.50
2022-12-09T03:24:57.318Z,3.50
2022-12-09T03:27:33.257Z,3.50
2022-12-09T03:30:02.014Z,3.50
2022-12-09T03:32:30.622Z,3.50
2022-12-09T03:35:04.046Z,3.50
2022-12-09T03:37:32.248Z,3.50
2022-12-09T03:40:00.713Z,3.50
2022-12-09T03:42:42.380Z,3.50
2022-12-09T03:45:15.244Z,3.50
2022-12-09T03:47:44.530Z,3.50
2022-12-09T03:50:12.970Z,3.50
2022-12-09T03:52:39.785Z,3.40
2022-12-09T03:55:13.909Z,3.40
2022-12-09T03:57:45.216Z,3.40
2022-12-09T04:00:15.837Z,3.40
2022-12-09T04:02:42.852Z,3.50
2022-12-09T04:05:10.358Z,3.50
2022-12-09T04:07:39.692Z,3.50
2022-12-09T04:10:10.478Z,3.40
2022-12-09T04:12:40.387Z,3.40
2022-12-09T04:15:08.343Z,3.40
2022-12-09T04:17:37.837Z,3.40
2022-12-09T04:20:06.544Z,3.40
2022-12-09T04:22:36.334Z,3.40
2022-12-09T04:25:03.644Z,3.40
2022-12-09T04:27:32.669Z,3.40
2022-12-09T04:30:02.403Z,3.40
2022-12-09T04:32:30.420Z,3.40
2022-12-09T04:34:57.360Z,3.50
2022-12-09T04:37:26.212Z,3.50
2022-12-09T04:39:52.946Z,3.40
2022-12-09T04:42:21.930Z,3.50
2022-12-09T04:44:49.018Z,3.40
2022-12-09T04:47:16.089Z,3.40
2022-12-09T04:49:45.135Z,3.40
2022-12-09T04:52:14.254Z,3.40
2022-12-09T04:54:40.928Z,3.50
2022-12-09T04:57:12.383Z,3.40
2022-12-09T04:59:39.500Z,3.40
2022-12-09T05:02:09.156Z,3.40
2022-12-09T05:04:36.056Z,3.40
2022-12-09T05:07:03.197Z,3.40
2022-12-09T05:09:30.358Z,3.50
2022-12-09T05:12:00.525Z,3.40
2022-12-09T05:14:27.523Z,3.40
2022-12-09T05:16:54.663Z,3.30
2022-12-09T05:19:26.470Z,3.20
2022-12-09T05:21:53.559Z,3.20
2022-12-09T05:24:20.207Z,3.10
2022-12-09T05:26:47.373Z,3.00
2022-12-09T05:29:19.302Z,3.00
2022-12-09T05:31:51.565Z,3.00
2022-12-09T05:34:19.004Z,3.00
2022-12-09T05:36:46.184Z,3.00
2022-12-09T05:39:15.283Z,3.00
2022-12-09T05:41:43.425Z,2.90
2022-12-09T05:44:14.633Z,2.80
2022-12-09T05:46:44.242Z,2.80
2022-12-09T05:49:11.294Z,2.70
2022-12-09T05:51:38.469Z,2.70
2022-12-09T05:54:06.639Z,2.70
2022-12-09T05:56:33.696Z,2.70
2022-12-09T05:59:01.334Z,2.70
2022-12-09T06:01:28.655Z,2.60
2022-12-09T06:03:55.894Z,2.60
2022-12-09T06:06:27.895Z,2.50
2022-12-09T06:08:57.370Z,2.60
2022-12-09T06:11:27.849Z,2.60
2022-12-09T06:13:55.456Z,2.60
2022-12-09T06:16:23.390Z,2.60
2022-12-09T06:18:50.765Z,2.70
2022-12-09T06:21:19.319Z,2.60
2022-12-09T06:23:47.623Z,2.30
2022-12-09T06:26:30.779Z,2.20
2022-12-09T06:28:57.833Z,2.10
2022-12-09T06:31:28.298Z,2.10
2022-12-09T06:33:57.666Z,2.10
2022-12-09T06:36:28.405Z,2.10
2022-12-09T06:38:57.021Z,2.20
2022-12-09T06:41:26.957Z,2.20
2022-12-09T06:43:56.582Z,2.20
2022-12-09T06:46:26.488Z,2.10
2022-12-09T06:48:56.678Z,2.10
2022-12-09T06:51:25.098Z,2.10
2022-12-09T06:53:52.848Z,2.10
2022-12-09T06:56:19.795Z,2.10
2022-12-09T06:58:47.463Z,2.10
2022-12-09T07:01:16.826Z,2.20
2022-12-09T07:03:46.770Z,2.20
2022-12-09T07:06:31.017Z,2.20
2022-12-09T07:09:04.676Z,2.20
2022-12-09T07:11:31.981Z,2.10
2022-12-09T07:13:59.088Z,2.20
2022-12-09T07:16:26.246Z,2.20
2022-12-09T07:18:53.711Z,2.30
2022-12-09T07:21:24.011Z,2.20
2022-12-09T07:23:51.221Z,2.30
2022-12-09T07:26:19.171Z,2.30
2022-12-09T07:28:50.462Z,2.20
2022-12-09T07:31:27.016Z,2.20
2022-12-09T07:33:56.452Z,2.20
2022-12-09T07:36:25.955Z,2.10
2022-12-09T07:39:04.740Z,2.10
2022-12-09T07:41:31.728Z,2.10
2022-12-09T07:43:58.673Z,2.10
2022-12-09T07:46:27.527Z,2.20
2022-12-09T07:48:57.332Z,2.20
2022-12-09T07:51:27.596Z,2.20
2022-12-09T07:53:54.902Z,2.20
2022-12-09T07:56:23.461Z,2.30
2022-12-09T07:58:56.697Z,2.30
2022-12-09T08:01:29.537Z,2.30
2022-12-09T08:03:57.310Z,2.30
2022-12-09T08:06:27.387Z,2.30
2022-12-09T08:08:59.630Z,2.40
2022-12-09T08:11:29.335Z,2.40
2022-12-09T08:13:58.449Z,2.40
2022-12-09T08:16:25.956Z,2.40
2022-12-09T08:18:57.419Z,2.60
2022-12-09T08:21:31.360Z,2.80
2022-12-09T08:24:03.091Z,2.80
2022-12-09T08:26:32.408Z,2.80
2022-12-09T08:28:59.928Z,2.80
2022-12-09T08:31:30.314Z,2.80
2022-12-09T08:34:02.328Z,3.00
2022-12-09T08:36:29.302Z,3.00
2022-12-09T08:38:59.475Z,3.00
2022-12-09T08:41:36.803Z,3.10
2022-12-09T08:44:07.904Z,3.10
2022-12-09T08:46:36.393Z,3.10
2022-12-09T08:49:04.432Z,3.20
2022-12-09T08:51:32.486Z,3.20
2022-12-09T08:54:00.501Z,3.20
2022-12-09T08:56:29.956Z,3.20
2022-12-09T08:58:57.245Z,3.20
2022-12-09T09:01:32.268Z,3.20
2022-12-09T09:04:10.527Z,3.20
2022-12-09T09:06:39.500Z,3.20
2022-12-09T09:09:10.107Z,3.20
2022-12-09T09:11:43.152Z,3.30
2022-12-09T09:14:14.214Z,3.30
2022-12-09T09:16:45.372Z,3.40
2022-12-09T09:19:21.851Z,3.50
2022-12-09T09:21:50.016Z,3.50
2022-12-09T09:24:19.897Z,3.60
2022-12-09T09:26:47.796Z,3.60
2022-12-09T09:29:16.824Z,3.60
2022-12-09T09:31:44.053Z,3.60
2022-12-09T09:34:11.465Z,3.70
2022-12-09T09:36:39.163Z,3.70
2022-12-09T09:39:08.599Z,3.70
2022-12-09T09:41:53.630Z,3.80
2022-12-09T09:44:28.911Z,3.90
2022-12-09T09:46:57.467Z,4.00
2022-12-09T09:49:27.184Z,4.00
2022-12-09T09:51:55.008Z,4.00
2022-12-09T09:54:24.281Z,4.00
2022-12-09T09:57:00.095Z,4.00
2022-12-09T09:59:56.545Z,3.90
2022-12-09T10:02:48.372Z,4.00
2022-12-09T10:05:24.055Z,4.00
2022-12-09T10:07:57.150Z,4.00
2022-12-09T10:10:37.427Z,4.00
2022-12-09T10:13:22.970Z,4.00
2022-12-09T10:16:18.739Z,4.00
2022-12-09T10:19:09.685Z,4.10
2022-12-09T10:21:42.841Z,4.10
2022-12-09T10:24:39.301Z,4.10
2022-12-09T10:27:35.102Z,4.10
2022-12-09T10:30:10.324Z,4.00
2022-12-09T10:32:39.201Z,4.00
2022-12-09T10:35:18.740Z,3.90
2022-12-09T10:37:47.923Z,3.90
2022-12-09T10:40:48.050Z,3.90
2022-12-09T10:43:52.465Z,3.90
2022-12-09T10:46:24.379Z,4.00
2022-12-09T10:48:53.314Z,3.90
2022-12-09T10:51:25.825Z,4.00
2022-12-09T10:54:01.158Z,4.00
2022-12-09T10:56:34.114Z,4.10
2022-12-09T10:59:19.723Z,4.10
2022-12-09T11:01:55.721Z,4.20
2022-12-09T11:04:27.442Z,4.20
2022-12-09T11:07:02.508Z,4.30
2022-12-09T11:09:35.809Z,4.30
2022-12-09T11:12:05.842Z,4.30
2022-12-09T11:14:53.379Z,4.30
2022-12-09T11:17:43.130Z,4.20
2022-12-09T11:20:19.314Z,4.00
2022-12-09T11:23:04.572Z,4.00
2022-12-09T11:25:35.200Z,4.10
2022-12-09T11:28:24.532Z,4.10
2022-12-09T11:31:33.704Z,4.20
2022-12-09T11:34:04.711Z,4.20
2022-12-09T11:36:37.318Z,4.30
2022-12-09T11:39:24.948Z,4.30
2022-12-09T11:42:18.890Z,4.30
2022-12-09T11:45:07.170Z,4.40
2022-12-09T11:48:13.899Z,4.50
2022-12-09T11:50:33.158Z,4.50
2022-12-09T11:53:12.345Z,4.50
2022-12-09T11:55:55.322Z,4.40
2022-12-09T11:58:38.083Z,4.40
2022-12-09T12:01:11.428Z,4.40
2022-12-09T12:03:47.343Z,4.40
2022-12-09T12:06:50.503Z,4.40
2022-12-09T12:09:42.026Z,4.30
2022-12-09T12:12:29.769Z,4.40
2022-12-09T12:15:02.505Z,4.40
2022-12-09T12:17:43.022Z,4.50
2022-12-09T12:20:13.778Z,4.50
2022-12-09T12:23:09.237Z,4.50
2022-12-09T12:26:14.346Z,4.60
2022-12-09T12:28:58.079Z,4.60
2022-12-09T12:31:59.175Z,4.60
2022-12-09T12:34:40.853Z,4.70
2022-12-09T12:37:34.723Z,4.60
2022-12-09T12:40:11.377Z,4.60
2022-12-09T12:43:28.792Z,4.60
2022-12-09T12:46:19.392Z,4.60
2022-12-09T12:48:55.241Z,4.50
2022-12-09T12:51:33.882Z,4.60
2022-12-09T12:54:25.769Z,4.50
2022-12-09T12:57:10.558Z,4.60
2022-12-09T12:59:48.626Z,4.60
2022-12-09T13:02:39.257Z,4.60
2022-12-09T13:05:23.669Z,4.70
2022-12-09T13:08:07.745Z,4.80
2022-12-09T13:10:42.221Z,4.80
2022-12-09T13:13:23.331Z,4.90
2022-12-09T13:15:53.047Z,5.00
2022-12-09T13:18:27.921Z,4.90
2022-12-09T13:20:57.098Z,4.90
2022-12-09T13:23:23.761Z,5.00
2022-12-09T13:26:15.228Z,5.00
2022-12-09T13:28:59.674Z,4.90
2022-12-09T13:31:33.387Z,4.90
2022-12-09T13:34:18.779Z,4.90
2022-12-09T13:36:50.234Z,4.90
2022-12-09T13:39:42.114Z,4.90
2022-12-09T13:42:46.587Z,4.90
2022-12-09T13:45:26.349Z,4.80
2022-12-09T13:47:56.701Z,4.80
2022-12-09T13:50:24.855Z,4.70
2022-12-09T13:52:54.830Z,4.80
2022-12-09T13:55:26.226Z,4.80
2022-12-09T13:58:16.319Z,4.80
2022-12-09T14:00:48.024Z,4.80
2022-12-09T14:03:30.811Z,4.80
2022-12-09T14:06:00.184Z,4.90
2022-12-09T14:08:34.602Z,5.00
2022-12-09T14:11:39.859Z,5.00
2022-12-09T14:14:24.976Z,5.00
2022-12-09T14:17:03.693Z,5.00
2022-12-09T14:19:48.736Z,5.10
2022-12-09T14:22:18.653Z,5.10
2022-12-09T14:24:53.428Z,5.00
2022-12-09T14:27:31.727Z,5.00
2022-12-09T14:30:03.937Z,5.00
2022-12-09T14:32:53.720Z,5.00
2022-12-09T14:35:31.333Z,4.90
2022-12-09T14:38:10.126Z,4.90
2022-12-09T14:40:42.967Z,4.90
2022-12-09T14:43:33.827Z,4.80
2022-12-09T14:46:17.665Z,4.80
2022-12-09T14:48:53.417Z,4.80
2022-12-09T14:51:35.653Z,4.70
2022-12-09T14:54:07.514Z,4.70
2022-12-09T14:56:35.000Z,4.70
2022-12-09T14:59:19.443Z,4.70
2022-12-09T15:01:56.086Z,4.60
2022-12-09T15:04:33.915Z,4.50
2022-12-09T15:07:20.266Z,4.50
2022-12-09T15:09:48.130Z,4.50
2022-12-09T15:12:21.478Z,4.40
2022-12-09T15:14:54.407Z,4.40
2022-12-09T15:17:28.901Z,4.40
2022-12-09T15:20:00.503Z,4.40
2022-12-09T15:22:31.520Z,4.30
2022-12-09T15:24:58.633Z,4.30
2022-12-09T15:27:26.314Z,4.20
2022-12-09T15:29:58.140Z,4.20
2022-12-09T15:32:32.775Z,4.20
2022-12-09T15:35:27.265Z,4.20
2022-12-09T15:37:57.854Z,4.20
2022-12-09T15:40:29.120Z,4.20
2022-12-09T15:43:02.852Z,4.20
2022-12-09T15:45:38.220Z,4.20
2022-12-09T15:48:20.609Z,4.20
2022-12-09T15:50:49.807Z,4.20
2022-12-09T15:53:37.106Z,4.20
2022-12-09T15:56:11.482Z,4.20
2022-12-09T15:58:49.158Z,4.10
2022-12-09T16:01:32.374Z,4.20
2022-12-09T16:04:01.170Z,4.20
2022-12-09T16:06:37.472Z,4.20
2022-12-09T16:09:13.675Z,4.20
2022-12-09T16:11:47.973Z,4.20
2022-12-09T16:14:18.899Z,4.20
2022-12-09T16:17:00.084Z,4.20
2022-12-09T16:19:38.710Z,4.20
2022-12-09T16:22:11.180Z,4.20
2022-12-09T16:27:39.317Z,4.20
2022-12-09T16:30:27.201Z,4.10
2022-12-09T16:32:58.567Z,4.10
2022-12-09T16:35:40.926Z,4.10
2022-12-09T16:38:10.667Z,4.10
2022-12-09T16:40:43.495Z,4.10
2022-12-09T16:43:16.338Z,4.10
2022-12-09T16:45:43.155Z,4.00
2022-12-09T16:48:13.487Z,4.00
2022-12-09T16:50:51.982Z,4.00
2022-12-09T16:53:24.804Z,3.90
2022-12-09T16:56:00.155Z,3.90
2022-12-09T16:58:28.598Z,3.80
2022-12-09T17:00:55.882Z,3.80
2022-12-09T17:03:39.768Z,3.80
2022-12-09T17:06:12.727Z,3.80
2022-12-09T17:08:39.480Z,3.80
2022-12-09T17:11:06.425Z,3.80
2022-12-09T17:13:35.526Z,3.70
2022-12-09T17:16:02.677Z,3.70
2022-12-09T17:18:32.071Z,3.60
2022-12-09T17:21:13.858Z,3.60
2022-12-09T17:23:43.784Z,3.50
2022-12-09T17:26:16.780Z,3.50
2022-12-09T17:28:44.497Z,3.50
2022-12-09T17:31:19.192Z,3.50
2022-12-09T17:33:46.099Z,3.50
2022-12-09T17:36:14.363Z,3.40
2022-12-09T17:38:41.618Z,3.30
2022-12-09T17:41:12.868Z,3.40
2022-12-09T17:43:39.580Z,3.40
2022-12-09T17:46:06.892Z,3.40
2022-12-09T17:48:37.094Z,3.40
2022-12-09T17:51:07.596Z,3.40
2022-12-09T17:53:38.796Z,3.30
2022-12-09T17:56:10.937Z,3.30
2022-12-09T17:58:37.896Z,3.30
2022-12-09T18:01:11.796Z,3.20
2022-12-09T18:04:01.577Z,3.20
2022-12-09T18:06:33.963Z,3.30
2022-12-09T18:09:02.174Z,3.40
2022-12-09T18:11:28.917Z,3.40
2022-12-09T18:13:55.747Z,3.30
2022-12-09T18:16:27.207Z,3.40
2022-12-09T18:18:54.164Z,3.30
2022-12-09T18:21:26.029Z,3.30
2022-12-09T18:23:53.263Z,3.30
2022-12-09T18:26:27.126Z,3.30
2022-12-09T18:28:59.747Z,3.30
2022-12-09T18:31:26.999Z,3.20
2022-12-09T18:33:53.932Z,3.20
2022-12-09T18:36:26.622Z,3.10
2022-12-09T18:38:57.968Z,3.10
2022-12-09T18:41:29.494Z,3.10
2022-12-09T18:43:58.676Z,3.00
2022-12-09T18:46:31.443Z,2.90
2022-12-09T18:49:06.040Z,2.90
2022-12-09T18:51:33.622Z,2.80
2022-12-09T18:54:06.522Z,2.80
2022-12-09T18:56:34.268Z,2.70
2022-12-09T18:59:08.413Z,2.60
2022-12-09T19:01:41.134Z,2.60
2022-12-09T19:04:23.017Z,2.60
2022-12-09T19:06:52.414Z,2.50
2022-12-09T19:09:23.942Z,2.40
2022-12-09T19:11:53.431Z,2.40
2022-12-09T19:16:49.676Z,2.30
2022-12-09T19:19:21.189Z,2.20
2022-12-09T19:21:51.288Z,2.20
2022-12-09T19:24:20.451Z,2.20
2022-12-09T19:26:47.304Z,2.20
2022-12-09T19:29:19.950Z,2.30
2022-12-09T19:34:22.499Z,2.10
2022-12-09T19:36:50.919Z,2.00
2022-12-09T19:39:23.546Z,2.00
2022-12-09T19:41:50.991Z,2.00
2022-12-09T19:44:37.141Z,2.00
2022-12-09T19:47:09.375Z,1.80
2022-12-09T19:49:40.863Z,1.90
2022-12-09T19:52:07.623Z,2.00
2022-12-09T19:54:34.325Z,1.80
2022-12-09T19:57:01.355Z,1.90
2022-12-09T19:59:30.919Z,1.90
2022-12-09T20:02:00.063Z,1.60
2022-12-09T20:07:15.077Z,1.60
2022-12-09T20:09:41.787Z,1.60
2022-12-09T20:12:08.488Z,1.60
2022-12-09T20:14:35.176Z,1.60
2022-12-09T20:17:01.888Z,1.60
2022-12-09T20:19:28.795Z,1.40
2022-12-09T20:21:55.648Z,1.60
2022-12-09T20:26:52.082Z,1.30
2022-12-09T20:29:18.801Z,1.30
2022-12-09T20:31:45.540Z,1.30
2022-12-09T20:34:15.005Z,1.30
2022-12-09T20:36:48.615Z,1.30
2022-12-09T20:39:18.272Z,1.30
2022-12-09T20:41:45.582Z,1.40
2022-12-09T20:44:16.344Z,1.40
2022-12-09T20:46:51.454Z,1.40
2022-12-09T20:49:26.387Z,1.30
2022-12-09T20:51:54.522Z,1.60
2022-12-09T20:54:23.788Z,1.30
2022-12-09T20:56:55.219Z,1.40
2022-12-09T20:59:21.955Z,1.40
2022-12-09T21:01:48.682Z,1.40
2022-12-09T21:04:20.012Z,1.40
2022-12-09T21:06:49.365Z,1.50
2022-12-09T21:09:22.150Z,1.40
2022-12-09T21:11:51.201Z,1.40
2022-12-09T21:14:20.818Z,1.40
2022-12-09T21:16:50.975Z,1.30
2022-12-09T21:19:25.231Z,1.30
2022-12-09T21:21:54.622Z,1.30
2022-12-09T21:24:23.816Z,1.30
2022-12-09T21:26:53.132Z,1.20
2022-12-09T21:29:29.876Z,1.20
2022-12-09T21:31:58.605Z,1.20
2022-12-09T21:34:25.499Z,1.20
2022-12-09T21:36:52.862Z,1.20
2022-12-09T21:39:22.025Z,1.30
2022-12-09T21:41:48.792Z,1.40
2022-12-09T21:44:22.344Z,1.50
2022-12-09T21:46:51.558Z,1.50
2022-12-09T21:49:18.221Z,1.50
2022-12-09T21:51:47.416Z,1.60
2022-12-09T21:54:14.155Z,1.50
2022-12-09T21:56:40.944Z,1.50
2022-12-09T21:59:08.236Z,2.00
2022-12-09T22:01:38.189Z,1.50
2022-12-09T22:04:07.627Z,1.50
2022-12-09T22:06:34.585Z,1.50
2022-12-09T22:09:02.259Z,1.50
2022-12-09T22:11:31.577Z,1.60
2022-12-09T22:14:02.099Z,1.50
2022-12-09T22:16:32.288Z,1.50
2022-12-09T22:18:59.690Z,1.40
2022-12-09T22:21:29.267Z,1.30
2022-12-09T22:24:01.245Z,1.20
2022-12-09T22:26:28.528Z,1.20
2022-12-09T22:28:56.838Z,1.30
2022-12-09T22:31:26.719Z,1.20
2022-12-09T22:33:56.326Z,1.20
2022-12-09T22:36:23.454Z,1.20
2022-12-09T22:38:52.993Z,1.20
2022-12-09T22:41:22.013Z,1.30
2022-12-09T22:43:51.674Z,1.40
2022-12-09T22:46:24.223Z,1.40
2022-12-09T22:48:53.389Z,1.40
2022-12-09T22:51:27.574Z,1.30
2022-12-09T22:53:55.656Z,1.40
2022-12-09T22:56:25.600Z,1.40
2022-12-09T22:58:54.941Z,1.40
2022-12-09T23:01:27.279Z,1.40
2022-12-09T23:03:55.461Z,1.40
2022-12-09T23:06:22.773Z,1.40
2022-12-09T23:08:51.561Z,1.40
2022-12-09T23:11:24.707Z,1.40
2022-12-09T23:13:54.434Z,1.40
2022-12-09T23:16:25.413Z,1.40
2022-12-09T23:18:54.334Z,1.40
2022-12-09T23:21:27.174Z,1.50
2022-12-09T23:23:56.529Z,1.60
2022-12-09T23:26:28.571Z,1.60
2022-12-09T23:28:59.592Z,1.70
2022-12-09T23:31:29.179Z,1.70
2022-12-09T23:33:56.493Z,1.90
2022-12-09T23:36:25.919Z,1.70
2022-12-09T23:38:53.781Z,1.70
2022-12-09T23:41:22.044Z,1.80
2022-12-09T23:43:49.989Z,1.80
2022-12-09T23:46:22.299Z,1.80
2022-12-09T23:48:50.179Z,1.70
2022-12-09T23:51:25.261Z,1.80
2022-12-09T23:53:54.629Z,1.80
2022-12-09T23:56:23.263Z,1.80
2022-12-09T23:58:55.426Z,1.80
